^^
Meteo Knjazevac Station Historical Data
Daily Summary for March 6, 2021 Units:  Both    English   Metric
Daily Weekly Monthly Yearly Custom
  High: Low: Average:
Temperature: 83.8 °F /  28.8 °C 61.9 °F /  16.6 °C 73.1 °F /  22.8 °C
Dew Point: 62.5 °F /  16.9 °C 54.2 °F /  12.3 °C 60.1 °F /  15.6 °C
Humidity: 89% 45% 66%
Wind Speed: 12mph /  19.3km/h - 4.3mph /  6.9km/h
Wind Gust: 21mph /  33.8km/h - -
Wind- - WSW
Pressure: 29.95 in /  1014.1 hPa 29.81 in /  1009.4 hPa -
Precipitation: 0.00 in /  0 mm    
Historical Graphs
 
 
Tabular Data for March 6, 2021
Time Temperature Dew Point Pressure Wind Wind Speed Wind Gust Humidity Rainfall Rate (Hourly) solar Conditions
00:00 69.4 °F /  20.8 °C 62.3 °F /  16.8 °C 29.81in /  1009.4hPa SSE 1mph /  1.6km/h 4mph /  6.4km/h 78% 0.00in /  0mm 0 W/m2
00:10 69.1 °F /  20.6 °C 62.3 °F /  16.8 °C 29.81in /  1009.4hPa NW 2mph /  3.2km/h 4mph /  6.4km/h 79% 0.00in /  0mm 0 W/m2
00:20 68.9 °F /  20.5 °C 62.1 °F /  16.7 °C 29.81in /  1009.4hPa Calm   4mph /  6.4km/h 79% 0.00in /  0mm 0 W/m2
00:30 68.7 °F /  20.4 °C 62.3 °F /  16.8 °C 29.81in /  1009.4hPa Calm   3mph /  4.8km/h 80% 0.00in /  0mm 0 W/m2
00:40 68.4 °F /  20.2 °C 61.6 °F /  16.4 °C 29.81in /  1009.4hPa North 1mph /  1.6km/h 3mph /  4.8km/h 79% 0.00in /  0mm 0 W/m2
00:50 68.2 °F /  20.1 °C 62.1 °F /  16.7 °C 29.81in /  1009.4hPa WNW 1mph /  1.6km/h 2mph /  3.2km/h 81% 0.00in /  0mm 0 W/m2
01:00 67.8 °F /  19.9 °C 61.8 °F /  16.6 °C 29.81in /  1009.4hPa WNW 2mph /  3.2km/h 3mph /  4.8km/h 81% 0.00in /  0mm 0 W/m2
01:10 67.6 °F /  19.8 °C 61.6 °F /  16.4 °C 29.81in /  1009.4hPa NNW 1mph /  1.6km/h 5mph /  8km/h 81% 0.00in /  0mm 0 W/m2
01:20 67.5 °F /  19.7 °C 62.1 °F /  16.7 °C 29.81in /  1009.4hPa WNW 2mph /  3.2km/h 4mph /  6.4km/h 83% 0.00in /  0mm 0 W/m2
01:30 67.3 °F /  19.6 °C 61.9 °F /  16.6 °C 29.81in /  1009.4hPa WNW 2mph /  3.2km/h 5mph /  8km/h 83% 0.00in /  0mm 0 W/m2
01:40 66.9 °F /  19.4 °C 61.9 °F /  16.6 °C 29.81in /  1009.4hPa West 2mph /  3.2km/h 5mph /  8km/h 84% 0.00in /  0mm 0 W/m2
01:50 66.7 °F /  19.3 °C 61.7 °F /  16.5 °C 29.81in /  1009.4hPa NW 2mph /  3.2km/h 4mph /  6.4km/h 84% 0.00in /  0mm 0 W/m2
02:00 66.4 °F /  19.1 °C 61.4 °F /  16.3 °C 29.81in /  1009.4hPa West 2mph /  3.2km/h 7mph /  11.3km/h 84% 0.00in /  0mm 0 W/m2
02:10 66.2 °F /  19 °C 61.2 °F /  16.2 °C 29.82in /  1009.7hPa WSW 2mph /  3.2km/h 5mph /  8km/h 84% 0.00in /  0mm 0 W/m2
02:20 66 °F /  18.9 °C 61 °F /  16.1 °C 29.82in /  1009.7hPa WSW 2mph /  3.2km/h 5mph /  8km/h 84% 0.00in /  0mm 0 W/m2
02:30 66.1 °F /  18.9 °C 61.1 °F /  16.2 °C 29.82in /  1009.7hPa West 1mph /  1.6km/h 3mph /  4.8km/h 84% 0.00in /  0mm 0 W/m2
02:40 66.4 °F /  19.1 °C 61.4 °F /  16.3 °C 29.82in /  1009.7hPa NNW 2mph /  3.2km/h 3mph /  4.8km/h 84% 0.00in /  0mm 0 W/m2
02:50 66.4 °F /  19.1 °C 61.4 °F /  16.3 °C 29.82in /  1009.7hPa West 2mph /  3.2km/h 2mph /  3.2km/h 84% 0.00in /  0mm 0 W/m2
03:00 66.6 °F /  19.2 °C 61.2 °F /  16.2 °C 29.82in /  1009.7hPa North 1mph /  1.6km/h 5mph /  8km/h 83% 0.00in /  0mm 0 W/m2
03:10 66.7 °F /  19.3 °C 61.4 °F /  16.3 °C 29.83in /  1010hPa NE 1mph /  1.6km/h 4mph /  6.4km/h 83% 0.00in /  0mm 0 W/m2
03:20 66.6 °F /  19.2 °C 61.6 °F /  16.4 °C 29.83in /  1010hPa WNW 2mph /  3.2km/h 4mph /  6.4km/h 84% 0.00in /  0mm 0 W/m2
03:30 66.4 °F /  19.1 °C 61.7 °F /  16.5 °C 29.83in /  1010hPa West 3mph /  4.8km/h 5mph /  8km/h 85% 0.00in /  0mm 0 W/m2
03:40 66.4 °F /  19.1 °C 61.4 °F /  16.3 °C 29.83in /  1010hPa WNW 1mph /  1.6km/h 5mph /  8km/h 84% 0.00in /  0mm 0 W/m2
03:50 66.4 °F /  19.1 °C 61.4 °F /  16.3 °C 29.83in /  1010hPa SW 2mph /  3.2km/h 6mph /  9.7km/h 84% 0.00in /  0mm 0 W/m2
04:00 66.2 °F /  19 °C 61.2 °F /  16.2 °C 29.83in /  1010hPa WSW 3mph /  4.8km/h 7mph /  11.3km/h 84% 0.00in /  0mm 0 W/m2
04:10 66.3 °F /  19.1 °C 61.4 °F /  16.3 °C 29.84in /  1010.4hPa West 3mph /  4.8km/h 7mph /  11.3km/h 84% 0.00in /  0mm 0 W/m2
04:20 66.4 °F /  19.1 °C 61.4 °F /  16.3 °C 29.84in /  1010.4hPa West 1mph /  1.6km/h 6mph /  9.7km/h 84% 0.00in /  0mm 0 W/m2
04:30 66.2 °F /  19 °C 61.2 °F /  16.2 °C 29.84in /  1010.4hPa SW 1mph /  1.6km/h 2mph /  3.2km/h 84% 0.00in /  0mm 0 W/m2
04:40 65.8 °F /  18.8 °C 60.9 °F /  16.1 °C 29.84in /  1010.4hPa West 1mph /  1.6km/h 3mph /  4.8km/h 84% 0.00in /  0mm 0 W/m2
04:50 65.7 °F /  18.7 °C 61 °F /  16.1 °C 29.84in /  1010.4hPa NNE 2mph /  3.2km/h 3mph /  4.8km/h 85% 0.00in /  0mm 0 W/m2
05:00 65.5 °F /  18.6 °C 60.9 °F /  16.1 °C 29.85in /  1010.7hPa NE 1mph /  1.6km/h 3mph /  4.8km/h 85% 0.00in /  0mm 0 W/m2
05:10 65.3 °F /  18.5 °C 60.7 °F /  15.9 °C 29.85in /  1010.7hPa North 1mph /  1.6km/h 3mph /  4.8km/h 85% 0.00in /  0mm 0 W/m2
05:20 64.9 °F /  18.3 °C 60.6 °F /  15.9 °C 29.85in /  1010.7hPa Calm   3mph /  4.8km/h 86% 0.00in /  0mm 0 W/m2
05:30 64.8 °F /  18.2 °C 60.5 °F /  15.8 °C 29.86in /  1011.1hPa Calm   2mph /  3.2km/h 86% 0.00in /  0mm 4 W/m2
05:40 64.8 °F /  18.2 °C 61.1 °F /  16.2 °C 29.86in /  1011.1hPa Calm   4mph /  6.4km/h 88% 0.00in /  0mm 8 W/m2
05:50 64.6 °F /  18.1 °C 60.9 °F /  16.1 °C 29.86in /  1011.1hPa SW 1mph /  1.6km/h 3mph /  4.8km/h 88% 0.00in /  0mm 16 W/m2
06:00 64.4 °F /  18 °C 60.8 °F /  16 °C 29.86in /  1011.1hPa NE 1mph /  1.6km/h 3mph /  4.8km/h 88% 0.00in /  0mm 30 W/m2
06:10 64.2 °F /  17.9 °C 60.9 °F /  16.1 °C 29.86in /  1011.1hPa SSW 2mph /  3.2km/h 6mph /  9.7km/h 89% 0.00in /  0mm 40 W/m2
06:20 64.4 °F /  18 °C 61.1 °F /  16.2 °C 29.86in /  1011.1hPa SSW 2mph /  3.2km/h 6mph /  9.7km/h 89% 0.00in /  0mm 44 W/m2
06:30 64.4 °F /  18 °C 61.1 °F /  16.2 °C 29.87in /  1011.4hPa SSE 1mph /  1.6km/h 5mph /  8km/h 89% 0.00in /  0mm 53 W/m2
06:40 64.7 °F /  18.2 °C 61.4 °F /  16.3 °C 29.87in /  1011.4hPa ENE 1mph /  1.6km/h 3mph /  4.8km/h 89% 0.00in /  0mm 58 W/m2
06:50 65.1 °F /  18.4 °C 61.8 °F /  16.6 °C 29.88in /  1011.7hPa North 1mph /  1.6km/h 2mph /  3.2km/h 89% 0.00in /  0mm 83 W/m2
07:00 65.7 °F /  18.7 °C 62.3 °F /  16.8 °C 29.88in /  1011.7hPa WNW 2mph /  3.2km/h 4mph /  6.4km/h 89% 0.00in /  0mm 87 W/m2
07:10 66.2 °F /  19 °C 62.5 °F /  16.9 °C 29.88in /  1011.7hPa SW 6mph /  9.7km/h 10mph /  16.1km/h 88% 0.00in /  0mm 79 W/m2
07:20 66.9 °F /  19.4 °C 61.9 °F /  16.6 °C 29.88in /  1011.7hPa WSW 8mph /  12.9km/h 12mph /  19.3km/h 84% 0.00in /  0mm 106 W/m2
07:30 67.3 °F /  19.6 °C 61.2 °F /  16.2 °C 29.88in /  1011.7hPa SW 6mph /  9.7km/h 13mph /  20.9km/h 81% 0.00in /  0mm 126 W/m2
07:40 67.6 °F /  19.8 °C 61.2 °F /  16.2 °C 29.88in /  1011.7hPa SW 6mph /  9.7km/h 13mph /  20.9km/h 80% 0.00in /  0mm 160 W/m2
07:50 68 °F /  20 °C 61.2 °F /  16.2 °C 29.88in /  1011.7hPa WSW 5mph /  8km/h 13mph /  20.9km/h 79% 0.00in /  0mm 383 W/m2
08:00 68.4 °F /  20.2 °C 61.2 °F /  16.2 °C 29.88in /  1011.7hPa West 6mph /  9.7km/h 13mph /  20.9km/h 78% 0.00in /  0mm 414 W/m2
08:10 68.7 °F /  20.4 °C 61.2 °F /  16.2 °C 29.88in /  1011.7hPa West 7mph /  11.3km/h 12mph /  19.3km/h 77% 0.00in /  0mm 444 W/m2
08:20 69.3 °F /  20.7 °C 61 °F /  16.1 °C 29.88in /  1011.7hPa West 6mph /  9.7km/h 11mph /  17.7km/h 75% 0.00in /  0mm 475 W/m2
08:30 69.8 °F /  21 °C 61.1 °F /  16.2 °C 29.88in /  1011.7hPa WSW 6mph /  9.7km/h 12mph /  19.3km/h 74% 0.00in /  0mm 505 W/m2
08:40 70.5 °F /  21.4 °C 61.4 °F /  16.3 °C 29.88in /  1011.7hPa West 8mph /  12.9km/h 14mph /  22.5km/h 73% 0.00in /  0mm 534 W/m2
08:50 70.7 °F /  21.5 °C 61.2 °F /  16.2 °C 29.88in /  1011.7hPa West 7mph /  11.3km/h 14mph /  22.5km/h 72% 0.00in /  0mm 563 W/m2
09:00 71.4 °F /  21.9 °C 61.1 °F /  16.2 °C 29.88in /  1011.7hPa West 7mph /  11.3km/h 14mph /  22.5km/h 70% 0.00in /  0mm 591 W/m2
09:10 72.7 °F /  22.6 °C 61.5 °F /  16.4 °C 29.88in /  1011.7hPa West 7mph /  11.3km/h 15mph /  24.1km/h 68% 0.00in /  0mm 619 W/m2
09:20 73.4 °F /  23 °C 60.9 °F /  16.1 °C 29.88in /  1011.7hPa West 8mph /  12.9km/h 13mph /  20.9km/h 65% 0.00in /  0mm 645 W/m2
09:30 74.1 °F /  23.4 °C 61.6 °F /  16.4 °C 29.88in /  1011.7hPa WSW 6mph /  9.7km/h 12mph /  19.3km/h 65% 0.00in /  0mm 671 W/m2
09:40 74.6 °F /  23.7 °C 61.2 °F /  16.2 °C 29.88in /  1011.7hPa WSW 8mph /  12.9km/h 12mph /  19.3km/h 63% 0.00in /  0mm 696 W/m2
09:50 75.2 °F /  24 °C 61.7 °F /  16.5 °C 29.87in /  1011.4hPa WSW 7mph /  11.3km/h 13mph /  20.9km/h 63% 0.00in /  0mm 720 W/m2
10:00 75.6 °F /  24.2 °C 61.6 °F /  16.4 °C 29.87in /  1011.4hPa WSW 9mph /  14.5km/h 14mph /  22.5km/h 62% 0.00in /  0mm 742 W/m2
10:10 76.3 °F /  24.6 °C 62.3 °F /  16.8 °C 29.87in /  1011.4hPa WSW 7mph /  11.3km/h 13mph /  20.9km/h 62% 0.00in /  0mm 764 W/m2
10:20 76.6 °F /  24.8 °C 61.7 °F /  16.5 °C 29.87in /  1011.4hPa WSW 8mph /  12.9km/h 13mph /  20.9km/h 60% 0.00in /  0mm 784 W/m2
10:30 77.2 °F /  25.1 °C 61.7 °F /  16.5 °C 29.87in /  1011.4hPa WSW 7mph /  11.3km/h 12mph /  19.3km/h 59% 0.00in /  0mm 803 W/m2
10:40 77.4 °F /  25.2 °C 61.9 °F /  16.6 °C 29.88in /  1011.7hPa West 7mph /  11.3km/h 13mph /  20.9km/h 59% 0.00in /  0mm 821 W/m2
10:50 77.9 °F /  25.5 °C 61.4 °F /  16.3 °C 29.87in /  1011.4hPa WSW 8mph /  12.9km/h 12mph /  19.3km/h 57% 0.00in /  0mm 161 W/m2
11:00 78.3 °F /  25.7 °C 61.8 °F /  16.6 °C 29.87in /  1011.4hPa WSW 7mph /  11.3km/h 12mph /  19.3km/h 57% 0.00in /  0mm 852 W/m2
11:10 78.4 °F /  25.8 °C 61.9 °F /  16.6 °C 29.87in /  1011.4hPa WSW 8mph /  12.9km/h 15mph /  24.1km/h 57% 0.00in /  0mm 139 W/m2
11:20 78.4 °F /  25.8 °C 61.9 °F /  16.6 °C 29.88in /  1011.7hPa WSW 6mph /  9.7km/h 15mph /  24.1km/h 57% 0.00in /  0mm 552 W/m2
11:30 78.4 °F /  25.8 °C 61.9 °F /  16.6 °C 29.87in /  1011.4hPa West 9mph /  14.5km/h 15mph /  24.1km/h 57% 0.00in /  0mm 813 W/m2
11:40 78.6 °F /  25.9 °C 61.1 °F /  16.2 °C 29.87in /  1011.4hPa WSW 9mph /  14.5km/h 16mph /  25.7km/h 55% 0.00in /  0mm 309 W/m2
11:50 79 °F /  26.1 °C 60.9 °F /  16.1 °C 29.87in /  1011.4hPa WSW 9mph /  14.5km/h 15mph /  24.1km/h 54% 0.00in /  0mm 906 W/m2
12:00 79.5 °F /  26.4 °C 60.9 °F /  16.1 °C 29.86in /  1011.1hPa WSW 8mph /  12.9km/h 15mph /  24.1km/h 53% 0.00in /  0mm 912 W/m2
12:10 80 °F /  26.7 °C 61.9 °F /  16.6 °C 29.86in /  1011.1hPa WSW 8mph /  12.9km/h 15mph /  24.1km/h 54% 0.00in /  0mm 917 W/m2
12:20 80.1 °F /  26.7 °C 61.4 °F /  16.3 °C 29.86in /  1011.1hPa WSW 7mph /  11.3km/h 18mph /  29km/h 53% 0.00in /  0mm 920 W/m2
12:30 80.4 °F /  26.9 °C 61.7 °F /  16.5 °C 29.86in /  1011.1hPa WSW 9mph /  14.5km/h 15mph /  24.1km/h 53% 0.00in /  0mm 922 W/m2
12:40 80.6 °F /  27 °C 61.3 °F /  16.3 °C 29.86in /  1011.1hPa WSW 10mph /  16.1km/h 16mph /  25.7km/h 52% 0.00in /  0mm 922 W/m2
12:50 80.6 °F /  27 °C 61.4 °F /  16.3 °C 29.86in /  1011.1hPa WSW 10mph /  16.1km/h 19mph /  30.6km/h 52% 0.00in /  0mm 920 W/m2
13:00 80.8 °F /  27.1 °C 61.5 °F /  16.4 °C 29.86in /  1011.1hPa WSW 12mph /  19.3km/h 20mph /  32.2km/h 52% 0.00in /  0mm 917 W/m2
13:10 80.8 °F /  27.1 °C 61.5 °F /  16.4 °C 29.86in /  1011.1hPa WSW 9mph /  14.5km/h 17mph /  27.4km/h 52% 0.00in /  0mm 912 W/m2
13:20 81.3 °F /  27.4 °C 62 °F /  16.7 °C 29.86in /  1011.1hPa WSW 10mph /  16.1km/h 15mph /  24.1km/h 52% 0.00in /  0mm 906 W/m2
13:30 81.7 °F /  27.6 °C 62.3 °F /  16.8 °C 29.85in /  1010.7hPa WSW 9mph /  14.5km/h 17mph /  27.4km/h 52% 0.00in /  0mm 898 W/m2
13:40 81.3 °F /  27.4 °C 62 °F /  16.7 °C 29.85in /  1010.7hPa West 10mph /  16.1km/h 20mph /  32.2km/h 52% 0.00in /  0mm 889 W/m2
13:50 81.9 °F /  27.7 °C 61.4 °F /  16.3 °C 29.85in /  1010.7hPa WSW 10mph /  16.1km/h 20mph /  32.2km/h 50% 0.00in /  0mm 878 W/m2
14:00 82.2 °F /  27.9 °C 61.7 °F /  16.5 °C 29.85in /  1010.7hPa West 9mph /  14.5km/h 17mph /  27.4km/h 50% 0.00in /  0mm 866 W/m2
14:10 82 °F /  27.8 °C 61 °F /  16.1 °C 29.84in /  1010.4hPa WSW 6mph /  9.7km/h 21mph /  33.8km/h 49% 0.00in /  0mm 852 W/m2
14:20 82.4 °F /  28 °C 61.9 °F /  16.6 °C 29.85in /  1010.7hPa WSW 8mph /  12.9km/h 18mph /  29km/h 50% 0.00in /  0mm 837 W/m2
14:30 82.6 °F /  28.1 °C 61.5 °F /  16.4 °C 29.84in /  1010.4hPa WSW 8mph /  12.9km/h 13mph /  20.9km/h 49% 0.00in /  0mm 820 W/m2
14:40 82.9 °F /  28.3 °C 61.2 °F /  16.2 °C 29.84in /  1010.4hPa WSW 6mph /  9.7km/h 12mph /  19.3km/h 48% 0.00in /  0mm 803 W/m2
14:50 83.1 °F /  28.4 °C 61.4 °F /  16.3 °C 29.84in /  1010.4hPa West 7mph /  11.3km/h 13mph /  20.9km/h 48% 0.00in /  0mm 784 W/m2
15:00 83.1 °F /  28.4 °C 61.4 °F /  16.3 °C 29.84in /  1010.4hPa WSW 6mph /  9.7km/h 16mph /  25.7km/h 48% 0.00in /  0mm 763 W/m2
15:10 83.5 °F /  28.6 °C 61.1 °F /  16.2 °C 29.84in /  1010.4hPa West 8mph /  12.9km/h 16mph /  25.7km/h 47% 0.00in /  0mm 742 W/m2
15:20 83.3 °F /  28.5 °C 61 °F /  16.1 °C 29.84in /  1010.4hPa West 5mph /  8km/h 14mph /  22.5km/h 47% 0.00in /  0mm 719 W/m2
15:30 83.3 °F /  28.5 °C 61 °F /  16.1 °C 29.84in /  1010.4hPa West 8mph /  12.9km/h 15mph /  24.1km/h 47% 0.00in /  0mm 674 W/m2
15:40 83.1 °F /  28.4 °C 60.8 °F /  16 °C 29.84in /  1010.4hPa WSW 8mph /  12.9km/h 15mph /  24.1km/h 47% 0.00in /  0mm 288 W/m2
15:50 82.8 °F /  28.2 °C 61.1 °F /  16.2 °C 29.84in /  1010.4hPa West 5mph /  8km/h 15mph /  24.1km/h 48% 0.00in /  0mm 250 W/m2
16:00 82.8 °F /  28.2 °C 59.3 °F /  15.2 °C 29.84in /  1010.4hPa NW 7mph /  11.3km/h 17mph /  27.4km/h 45% 0.00in /  0mm 618 W/m2
16:10 82.6 °F /  28.1 °C 60.3 °F /  15.7 °C 29.85in /  1010.7hPa NNW 7mph /  11.3km/h 12mph /  19.3km/h 47% 0.00in /  0mm 195 W/m2
16:20 82.2 °F /  27.9 °C 60 °F /  15.6 °C 29.84in /  1010.4hPa NW 9mph /  14.5km/h 16mph /  25.7km/h 47% 0.00in /  0mm 253 W/m2
16:30 82.4 °F /  28 °C 58.9 °F /  14.9 °C 29.85in /  1010.7hPa WNW 7mph /  11.3km/h 14mph /  22.5km/h 45% 0.00in /  0mm 533 W/m2
16:40 82.8 °F /  28.2 °C 59.3 °F /  15.2 °C 29.85in /  1010.7hPa WNW 6mph /  9.7km/h 15mph /  24.1km/h 45% 0.00in /  0mm 504 W/m2
16:50 83.3 °F /  28.5 °C 59.7 °F /  15.4 °C 29.85in /  1010.7hPa WNW 7mph /  11.3km/h 13mph /  20.9km/h 45% 0.00in /  0mm 474 W/m2
17:00 83.1 °F /  28.4 °C 59.6 °F /  15.3 °C 29.85in /  1010.7hPa West 9mph /  14.5km/h 14mph /  22.5km/h 45% 0.00in /  0mm 443 W/m2
17:10 83.1 °F /  28.4 °C 60.8 °F /  16 °C 29.85in /  1010.7hPa West 6mph /  9.7km/h 16mph /  25.7km/h 47% 0.00in /  0mm 413 W/m2
17:20 83.8 °F /  28.8 °C 60.2 °F /  15.7 °C 29.85in /  1010.7hPa NW 6mph /  9.7km/h 12mph /  19.3km/h 45% 0.00in /  0mm 382 W/m2
17:30 83.6 °F /  28.7 °C 60.1 °F /  15.6 °C 29.85in /  1010.7hPa NW 6mph /  9.7km/h 13mph /  20.9km/h 45% 0.00in /  0mm 351 W/m2
17:40 83.3 °F /  28.5 °C 59.7 °F /  15.4 °C 29.86in /  1011.1hPa West 6mph /  9.7km/h 12mph /  19.3km/h 45% 0.00in /  0mm 320 W/m2
17:50 82.9 °F /  28.3 °C 59.4 °F /  15.2 °C 29.86in /  1011.1hPa WNW 6mph /  9.7km/h 12mph /  19.3km/h 45% 0.00in /  0mm 289 W/m2
18:00 82.6 °F /  28.1 °C 60.3 °F /  15.7 °C 29.86in /  1011.1hPa NW 6mph /  9.7km/h 13mph /  20.9km/h 47% 0.00in /  0mm 172 W/m2
18:10 81.7 °F /  27.6 °C 58.3 °F /  14.6 °C 29.86in /  1011.1hPa NW 5mph /  8km/h 12mph /  19.3km/h 45% 0.00in /  0mm 90 W/m2
18:20 80.8 °F /  27.1 °C 58.6 °F /  14.8 °C 29.86in /  1011.1hPa NNW 5mph /  8km/h 12mph /  19.3km/h 47% 0.00in /  0mm 67 W/m2
18:30 80.1 °F /  26.7 °C 58 °F /  14.4 °C 29.87in /  1011.4hPa NNW 3mph /  4.8km/h 7mph /  11.3km/h 47% 0.00in /  0mm 70 W/m2
18:40 80.1 °F /  26.7 °C 58.6 °F /  14.8 °C 29.87in /  1011.4hPa NW 3mph /  4.8km/h 8mph /  12.9km/h 48% 0.00in /  0mm 130 W/m2
18:50 79.9 °F /  26.6 °C 58.4 °F /  14.7 °C 29.87in /  1011.4hPa WNW 5mph /  8km/h 12mph /  19.3km/h 48% 0.00in /  0mm 97 W/m2
19:00 79.7 °F /  26.5 °C 58.3 °F /  14.6 °C 29.87in /  1011.4hPa WNW 2mph /  3.2km/h 9mph /  14.5km/h 48% 0.00in /  0mm 78 W/m2
19:10 79.3 °F /  26.3 °C 57.9 °F /  14.4 °C 29.87in /  1011.4hPa WNW 3mph /  4.8km/h 8mph /  12.9km/h 48% 0.00in /  0mm 57 W/m2
19:20 79 °F /  26.1 °C 58.2 °F /  14.6 °C 29.87in /  1011.4hPa WNW 2mph /  3.2km/h 8mph /  12.9km/h 49% 0.00in /  0mm 33 W/m2
19:30 78.3 °F /  25.7 °C 57.5 °F /  14.2 °C 29.88in /  1011.7hPa WNW 2mph /  3.2km/h 7mph /  11.3km/h 49% 0.00in /  0mm 18 W/m2
19:40 77.7 °F /  25.4 °C 57.6 °F /  14.2 °C 29.88in /  1011.7hPa NW 1mph /  1.6km/h 6mph /  9.7km/h 50% 0.00in /  0mm 10 W/m2
19:50 77 °F /  25 °C 58 °F /  14.4 °C 29.88in /  1011.7hPa NNW 2mph /  3.2km/h 6mph /  9.7km/h 52% 0.00in /  0mm 0 W/m2
20:00 76.3 °F /  24.6 °C 57.4 °F /  14.1 °C 29.88in /  1011.7hPa NNW 1mph /  1.6km/h 4mph /  6.4km/h 52% 0.00in /  0mm 0 W/m2
20:10 75.6 °F /  24.2 °C 57.7 °F /  14.3 °C 29.88in /  1011.7hPa WNW 2mph /  3.2km/h 5mph /  8km/h 54% 0.00in /  0mm 0 W/m2
20:20 74.7 °F /  23.7 °C 57.4 °F /  14.1 °C 29.89in /  1012.1hPa WNW 2mph /  3.2km/h 5mph /  8km/h 55% 0.00in /  0mm 0 W/m2
20:30 73.9 °F /  23.3 °C 57.7 °F /  14.3 °C 29.89in /  1012.1hPa West 2mph /  3.2km/h 7mph /  11.3km/h 57% 0.00in /  0mm 0 W/m2
20:40 73.2 °F /  22.9 °C 57 °F /  13.9 °C 29.90in /  1012.4hPa West 3mph /  4.8km/h 7mph /  11.3km/h 57% 0.00in /  0mm 0 W/m2
20:50 72.3 °F /  22.4 °C 57.2 °F /  14 °C 29.90in /  1012.4hPa West 2mph /  3.2km/h 6mph /  9.7km/h 59% 0.00in /  0mm 0 W/m2
21:00 71.4 °F /  21.9 °C 57.7 °F /  14.3 °C 29.91in /  1012.8hPa SW 1mph /  1.6km/h 3mph /  4.8km/h 62% 0.00in /  0mm 0 W/m2
21:10 70.5 °F /  21.4 °C 56.8 °F /  13.8 °C 29.91in /  1012.8hPa Calm   3mph /  4.8km/h 62% 0.00in /  0mm 0 W/m2
21:20 69.8 °F /  21 °C 56.6 °F /  13.7 °C 29.91in /  1012.8hPa NW 1mph /  1.6km/h 2mph /  3.2km/h 63% 0.00in /  0mm 0 W/m2
21:30 69 °F /  20.6 °C 56.4 °F /  13.6 °C 29.91in /  1012.8hPa WSW 2mph /  3.2km/h 3mph /  4.8km/h 64% 0.00in /  0mm 0 W/m2
21:40 68 °F /  20 °C 55.8 °F /  13.2 °C 29.91in /  1012.8hPa Calm   4mph /  6.4km/h 65% 0.00in /  0mm 0 W/m2
21:50 67.5 °F /  19.7 °C 56.1 °F /  13.4 °C 29.92in /  1013.1hPa SW 1mph /  1.6km/h 2mph /  3.2km/h 67% 0.00in /  0mm 0 W/m2
22:00 66.9 °F /  19.4 °C 55.6 °F /  13.1 °C 29.92in /  1013.1hPa Calm   2mph /  3.2km/h 67% 0.00in /  0mm 0 W/m2
22:10 66.4 °F /  19.1 °C 55.5 °F /  13.1 °C 29.92in /  1013.1hPa SSE 1mph /  1.6km/h 2mph /  3.2km/h 68% 0.00in /  0mm 0 W/m2
22:20 65.8 °F /  18.8 °C 55.4 °F /  13 °C 29.92in /  1013.1hPa South 1mph /  1.6km/h 3mph /  4.8km/h 69% 0.00in /  0mm 0 W/m2
22:30 65.5 °F /  18.6 °C 55.4 °F /  13 °C 29.93in /  1013.4hPa WSW 1mph /  1.6km/h 3mph /  4.8km/h 70% 0.00in /  0mm 0 W/m2
22:40 64.8 °F /  18.2 °C 55.5 °F /  13.1 °C 29.93in /  1013.4hPa West 1mph /  1.6km/h 3mph /  4.8km/h 72% 0.00in /  0mm 0 W/m2
22:50 64.2 °F /  17.9 °C 55.4 °F /  13 °C 29.94in /  1013.8hPa WNW 3mph /  4.8km/h 6mph /  9.7km/h 73% 0.00in /  0mm 0 W/m2
23:00 64 °F /  17.8 °C 54.8 °F /  12.7 °C 29.94in /  1013.8hPa WNW 1mph /  1.6km/h 6mph /  9.7km/h 72% 0.00in /  0mm 0 W/m2
23:10 63.7 °F /  17.6 °C 54.9 °F /  12.7 °C 29.94in /  1013.8hPa WSW 1mph /  1.6km/h 2mph /  3.2km/h 73% 0.00in /  0mm 0 W/m2
23:20 63.1 °F /  17.3 °C 54.7 °F /  12.6 °C 29.94in /  1013.8hPa WSW 1mph /  1.6km/h 2mph /  3.2km/h 74% 0.00in /  0mm 0 W/m2
23:30 62.8 °F /  17.1 °C 54.7 °F /  12.6 °C 29.94in /  1013.8hPa WNW 1mph /  1.6km/h 2mph /  3.2km/h 75% 0.00in /  0mm 0 W/m2
23:40 62.2 °F /  16.8 °C 54.2 °F /  12.3 °C 29.95in /  1014.1hPa Calm   2mph /  3.2km/h 75% 0.00in /  0mm 0 W/m2
23:50 61.9 °F /  16.6 °C 54.6 °F /  12.6 °C 29.95in /  1014.1hPa Calm   2mph /  3.2km/h 77% 0.00in /  0mm 0 W/m2
Knjazevac, Serbia
Compliments of Weather Underground - 2 mb